Time;durP1;ratioP1;P1;durP2;ratioP2;P2;SDS_P1;SDS_P2;PMS_P1;PMS_P2;Temp;Humidity;BMP_temperature;BMP_pressure;BME280_temperature;BME280_humidity;BME280_pressure;Samples;Min_cycle;Max_cycle;Signal;HPM_P1;HPM_P2
2022/10/24 00:02:07;;;;;;;0.30;0.30;;;14.40;99.90;;;;;;5091990;28;20044;-79
2022/10/24 00:04:38;;;;;;;0.30;0.30;;;14.40;99.90;;;;;;5086856;28;20059;-77
2022/10/24 00:07:06;;;;;;;0.40;0.40;;;14.40;99.90;;;;;;5092000;28;20453;-78
2022/10/24 00:09:33;;;;;;;0.63;0.52;;;14.40;99.90;;;;;;5096380;28;20517;-78
2022/10/24 00:11:59;;;;;;;0.35;0.30;;;14.40;99.90;;;;;;5096289;28;20489;-75
2022/10/24 00:14:25;;;;;;;0.20;0.20;;;14.40;99.90;;;;;;5081609;28;20059;-77
2022/10/24 00:16:51;;;;;;;0.20;0.20;;;14.40;99.90;;;;;;5091557;28;20939;-78
2022/10/24 00:19:17;;;;;;;;;;;14.40;99.90;;;;;;5088161;28;20398;-77
2022/10/24 00:21:42;;;;;;;0.47;0.47;;;14.30;99.90;;;;;;5082073;28;19920;-77
2022/10/24 00:24:08;;;;;;;0.30;0.30;;;14.30;99.90;;;;;;5076635;28;20052;-76
2022/10/24 00:26:34;;;;;;;0.20;0.20;;;14.30;99.90;;;;;;5071451;28;20048;-76
2022/10/24 00:29:00;;;;;;;;;;;14.20;99.90;;;;;;5085283;28;20043;-76
2022/10/24 00:31:26;;;;;;;0.20;0.20;;;14.10;99.90;;;;;;5093918;28;19915;-76
2022/10/24 00:33:51;;;;;;;0.20;0.20;;;14.10;99.90;;;;;;5091656;28;20048;-76
2022/10/24 00:36:20;;;;;;;0.28;0.28;;;14.10;99.90;;;;;;5094668;28;20044;-77
2022/10/24 00:38:47;;;;;;;0.30;0.30;;;14.10;99.90;;;;;;5073602;28;20036;-77
2022/10/24 00:41:24;;;;;;;0.40;0.40;;;14.00;99.90;;;;;;5086653;28;20042;-76
2022/10/24 00:43:50;;;;;;;0.40;0.40;;;14.00;99.90;;;;;;5094184;28;20371;-76
2022/10/24 00:46:18;;;;;;;0.20;0.20;;;14.00;99.90;;;;;;5085039;28;20048;-76
2022/10/24 00:48:53;;;;;;;0.30;0.30;;;14.00;99.90;;;;;;5081298;28;20028;-76
2022/10/24 00:51:24;;;;;;;0.20;0.20;;;14.00;99.90;;;;;;5084876;28;20369;-76
2022/10/24 00:53:59;;;;;;;0.30;0.30;;;13.90;99.90;;;;;;5076497;28;20054;-76
2022/10/24 00:56:29;;;;;;;0.20;0.20;;;14.00;99.90;;;;;;5077714;28;20044;-76
2022/10/24 00:58:56;;;;;;;0.50;0.50;;;13.90;99.90;;;;;;5075823;28;20055;-76
2022/10/24 01:01:24;;;;;;;0.30;0.30;;;13.90;99.90;;;;;;5076398;28;20036;-74
2022/10/24 01:03:50;;;;;;;0.30;0.30;;;13.90;99.90;;;;;;5075065;28;20036;-76
2022/10/24 01:06:27;;;;;;;0.40;0.40;;;13.90;99.90;;;;;;5075037;28;20152;-76
2022/10/24 01:09:05;;;;;;;0.55;0.55;;;14.00;99.90;;;;;;5076777;28;20039;-76
2022/10/24 01:11:39;;;;;;;0.52;0.52;;;14.00;99.90;;;;;;5078128;28;20052;-77
2022/10/24 01:14:33;;;;;;;0.30;0.30;;;14.00;99.90;;;;;;5082169;28;20396;-76
2022/10/24 01:17:28;;;;;;;0.20;0.20;;;13.90;99.90;;;;;;5086457;28;20036;-76
2022/10/24 01:20:25;;;;;;;0.28;0.28;;;13.90;99.90;;;;;;5084231;28;20060;-75
2022/10/24 01:23:13;;;;;;;0.30;0.30;;;13.90;99.90;;;;;;5073361;28;20050;-75
2022/10/24 01:25:57;;;;;;;0.40;0.40;;;13.80;99.90;;;;;;5077309;28;20069;-76
2022/10/24 01:28:40;;;;;;;0.40;0.40;;;13.80;99.90;;;;;;5072353;28;20040;-76
2022/10/24 01:31:15;;;;;;;0.28;0.28;;;13.80;99.90;;;;;;5077924;28;20048;-76
2022/10/24 01:33:53;;;;;;;0.20;0.20;;;13.90;99.90;;;;;;5074710;28;20571;-76
2022/10/24 01:36:44;;;;;;;0.22;0.22;;;13.90;99.90;;;;;;5074209;28;20079;-77
2022/10/24 01:39:14;;;;;;;0.47;0.47;;;13.90;99.90;;;;;;5076187;28;20538;-76
2022/10/24 01:41:41;;;;;;;0.40;0.40;;;14.00;99.90;;;;;;5077910;28;20036;-79
2022/10/24 01:44:34;;;;;;;0.30;0.30;;;14.00;99.90;;;;;;5060011;28;20040;-77
2022/10/24 01:47:23;;;;;;;0.43;0.43;;;14.10;99.90;;;;;;5069943;28;20048;-75
2022/10/24 01:49:55;;;;;;;0.63;0.63;;;14.20;99.90;;;;;;5080699;28;20434;-76
2022/10/24 01:52:23;;;;;;;0.30;0.30;;;14.00;99.90;;;;;;5073573;28;20167;-75
2022/10/24 01:54:50;;;;;;;0.30;0.30;;;14.20;99.90;;;;;;5076819;28;20048;-76
2022/10/24 01:57:16;;;;;;;0.30;0.30;;;14.30;99.90;;;;;;5077542;28;20032;-76
2022/10/24 01:59:47;;;;;;;0.20;0.20;;;14.30;99.90;;;;;;5074175;28;20559;-75
2022/10/24 02:02:26;;;;;;;0.40;0.40;;;14.40;99.90;;;;;;5060739;28;20048;-74
2022/10/24 02:04:55;;;;;;;0.20;0.20;;;14.40;99.90;;;;;;5076014;28;20042;-75
2022/10/24 02:07:22;;;;;;;0.30;0.30;;;14.50;99.90;;;;;;5073643;28;20043;-76
2022/10/24 02:09:53;;;;;;;0.30;0.30;;;14.50;99.90;;;;;;5075010;28;20050;-76
2022/10/24 02:12:22;;;;;;;0.20;0.20;;;14.60;99.90;;;;;;5079923;28;20055;-76
2022/10/24 02:14:55;;;;;;;0.98;0.98;;;14.60;99.90;;;;;;5075972;28;20097;-75
2022/10/24 02:17:21;;;;;;;0.30;0.30;;;14.60;99.90;;;;;;5076518;28;20487;-76
2022/10/24 02:19:46;;;;;;;;;;;14.70;99.90;;;;;;5061919;28;20056;-76
2022/10/24 02:22:28;;;;;;;0.43;0.43;;;14.80;99.90;;;;;;5073418;28;19931;-75
2022/10/24 02:25:02;;;;;;;0.40;0.40;;;14.70;99.90;;;;;;5060073;28;21083;-76
2022/10/24 02:27:40;;;;;;;0.50;0.50;;;14.60;99.90;;;;;;5074104;28;20212;-76
2022/10/24 02:30:13;;;;;;;0.75;0.75;;;14.60;99.90;;;;;;5074694;28;20487;-76
2022/10/24 02:32:45;;;;;;;0.20;0.20;;;14.60;99.90;;;;;;5081889;28;20040;-76
2022/10/24 02:35:14;;;;;;;0.70;0.70;;;14.60;99.90;;;;;;5077593;28;20039;-76
2022/10/24 02:37:46;;;;;;;0.30;0.30;;;14.60;99.90;;;;;;5101030;28;20077;-76
2022/10/24 02:40:14;;;;;;;1.27;1.25;;;14.70;99.90;;;;;;5101429;28;20055;-76
2022/10/24 02:42:43;;;;;;;0.32;0.32;;;14.80;99.90;;;;;;5088931;28;20087;-76
2022/10/24 02:45:11;;;;;;;0.20;0.20;;;14.80;99.90;;;;;;5091976;28;20072;-76
2022/10/24 02:47:39;;;;;;;0.20;0.20;;;14.80;99.90;;;;;;5091267;28;20032;-75
2022/10/24 02:50:05;;;;;;;0.30;0.30;;;14.70;99.90;;;;;;5089862;28;20097;-75
2022/10/24 02:52:31;;;;;;;;;;;14.80;99.90;;;;;;5084134;28;20048;-75
2022/10/24 02:54:57;;;;;;;0.30;0.30;;;14.70;99.90;;;;;;5081572;28;19917;-75
2022/10/24 02:57:24;;;;;;;0.43;0.43;;;14.70;99.90;;;;;;5082590;28;20070;-76
2022/10/24 02:59:49;;;;;;;0.40;0.40;;;14.70;99.90;;;;;;5098792;28;20059;-76
2022/10/24 03:02:15;;;;;;;0.57;0.52;;;14.70;99.90;;;;;;5097229;28;20043;-77
2022/10/24 03:04:40;;;;;;;0.35;0.35;;;14.70;99.90;;;;;;5090700;28;20047;-77
2022/10/24 03:07:06;;;;;;;0.95;0.77;;;14.70;99.90;;;;;;5091403;28;20069;-77
2022/10/24 03:09:33;;;;;;;0.40;0.40;;;14.70;99.90;;;;;;5099661;28;20040;-76
2022/10/24 03:11:59;;;;;;;0.47;0.47;;;14.70;99.90;;;;;;5095668;28;20052;-76
2022/10/24 03:14:24;;;;;;;0.30;0.30;;;14.70;99.90;;;;;;5081388;28;20028;-75
2022/10/24 03:16:50;;;;;;;0.30;0.30;;;14.70;99.90;;;;;;5086129;28;20142;-75
2022/10/24 03:19:15;;;;;;;0.40;0.40;;;14.70;99.90;;;;;;5090909;28;20056;-75
2022/10/24 03:21:41;;;;;;;0.30;0.30;;;14.70;99.90;;;;;;5094072;28;20138;-76
2022/10/24 03:24:07;;;;;;;1.13;0.38;;;14.80;99.90;;;;;;5090711;28;20102;-76
2022/10/24 03:26:33;;;;;;;0.50;0.50;;;14.90;99.90;;;;;;5073292;28;20469;-77
2022/10/24 03:28:59;;;;;;;0.25;0.25;;;14.90;99.90;;;;;;5076741;28;20049;-76
2022/10/24 03:31:25;;;;;;;0.28;0.28;;;14.90;99.90;;;;;;5093175;28;20044;-76
2022/10/24 03:33:51;;;;;;;;;;;14.90;99.90;;;;;;5086417;28;20175;-75
2022/10/24 03:36:17;;;;;;;0.50;0.50;;;15.00;99.90;;;;;;5089563;28;19941;-77
2022/10/24 03:38:43;;;;;;;0.20;0.20;;;15.10;99.90;;;;;;5093161;28;20083;-77
2022/10/24 03:41:08;;;;;;;0.40;0.40;;;15.10;99.90;;;;;;5082216;28;20036;-75
2022/10/24 03:43:34;;;;;;;;;;;15.10;99.90;;;;;;5088357;28;20079;-75
2022/10/24 03:46:00;;;;;;;0.40;0.40;;;15.20;99.90;;;;;;5064993;28;19916;-77
2022/10/24 03:48:25;;;;;;;0.50;0.50;;;15.10;99.90;;;;;;5067849;28;20109;-75
2022/10/24 03:50:51;;;;;;;;;;;15.10;99.90;;;;;;5101011;28;20055;-76
2022/10/24 03:53:17;;;;;;;1.45;1.35;;;15.10;99.90;;;;;;5084996;28;20262;-77
2022/10/24 03:55:42;;;;;;;0.30;0.30;;;15.10;99.90;;;;;;5059635;28;20134;-76
2022/10/24 03:58:08;;;;;;;0.93;0.93;;;15.20;99.90;;;;;;5084913;28;20044;-78
2022/10/24 04:00:38;;;;;;;0.52;0.52;;;15.20;99.90;;;;;;5090171;28;20112;-75
2022/10/24 04:03:05;;;;;;;0.20;0.20;;;15.20;99.90;;;;;;5091521;28;20497;-76
2022/10/24 04:05:31;;;;;;;0.40;0.40;;;15.20;99.90;;;;;;5084624;28;20120;-75
2022/10/24 04:07:57;;;;;;;0.30;0.30;;;15.20;99.90;;;;;;5088550;28;20054;-74
2022/10/24 04:10:23;;;;;;;0.25;0.25;;;15.20;99.90;;;;;;5087744;28;20043;-76
2022/10/24 04:12:48;;;;;;;0.38;0.38;;;15.20;99.90;;;;;;5084027;28;20423;-76
2022/10/24 04:15:14;;;;;;;0.40;0.40;;;15.20;99.90;;;;;;5090844;28;20040;-76
2022/10/24 04:17:40;;;;;;;;;;;15.20;99.90;;;;;;5082939;28;20040;-74
2022/10/24 04:20:06;;;;;;;0.45;0.45;;;15.10;99.90;;;;;;5078645;28;20399;-74
2022/10/24 04:22:32;;;;;;;0.22;0.22;;;15.10;99.90;;;;;;5065022;28;20033;-76
2022/10/24 04:24:57;;;;;;;;;;;15.00;99.90;;;;;;5070867;28;20083;-74
2022/10/24 04:27:23;;;;;;;0.30;0.30;;;15.00;99.90;;;;;;5073072;28;19923;-74
2022/10/24 04:29:49;;;;;;;0.28;0.28;;;14.90;99.90;;;;;;5069305;28;20059;-76
2022/10/24 04:32:14;;;;;;;0.40;0.40;;;14.80;99.90;;;;;;5068924;28;20079;-77
2022/10/24 04:34:40;;;;;;;0.50;0.50;;;14.70;99.90;;;;;;5065639;28;20044;-75
2022/10/24 04:37:06;;;;;;;;;;;14.70;99.90;;;;;;5067335;28;20045;-76
2022/10/24 04:39:31;;;;;;;2.70;0.70;;;14.60;99.90;;;;;;5062850;28;19916;-77
2022/10/24 04:41:57;;;;;;;0.30;0.30;;;14.50;99.90;;;;;;5073136;28;20435;-76
2022/10/24 04:44:23;;;;;;;0.30;0.30;;;14.40;99.90;;;;;;5062470;28;20044;-75
2022/10/24 04:46:50;;;;;;;0.63;0.40;;;14.30;99.90;;;;;;5075821;28;20044;-76
2022/10/24 04:49:16;;;;;;;0.30;0.30;;;14.30;99.90;;;;;;5072915;28;20044;-75
2022/10/24 04:51:41;;;;;;;0.30;0.30;;;14.30;99.90;;;;;;5063657;28;20045;-76
2022/10/24 04:54:07;;;;;;;0.30;0.30;;;14.20;99.90;;;;;;5063710;28;20048;-76
2022/10/24 04:56:33;;;;;;;0.85;0.85;;;14.10;99.90;;;;;;5044869;28;20043;-77
2022/10/24 04:59:00;;;;;;;3.83;1.08;;;14.20;99.90;;;;;;5071861;28;20044;-77
2022/10/24 05:01:25;;;;;;;0.20;0.20;;;14.20;99.90;;;;;;5072237;28;20044;-76
2022/10/24 05:03:51;;;;;;;1.25;1.15;;;14.20;99.90;;;;;;5069503;28;20094;-77
2022/10/24 05:06:17;;;;;;;0.30;0.30;;;14.20;99.90;;;;;;5054679;28;20057;-78
2022/10/24 05:08:42;;;;;;;0.50;0.50;;;14.20;99.90;;;;;;5074809;28;20070;-76
2022/10/24 05:11:11;;;;;;;0.30;0.30;;;14.20;99.90;;;;;;5070527;28;20063;-77
2022/10/24 05:13:37;;;;;;;0.30;0.30;;;14.20;99.90;;;;;;5069670;28;20098;-76
2022/10/24 05:16:04;;;;;;;0.45;0.45;;;14.10;99.90;;;;;;5067122;28;20486;-78
2022/10/24 05:18:30;;;;;;;0.30;0.30;;;14.10;99.90;;;;;;5046085;28;20049;-75
2022/10/24 05:21:00;;;;;;;0.30;0.30;;;14.10;99.90;;;;;;5085896;28;20106;-76
2022/10/24 05:23:26;;;;;;;0.20;0.20;;;14.20;99.90;;;;;;5091781;28;20480;-77
2022/10/24 05:25:52;;;;;;;0.70;0.70;;;14.20;99.90;;;;;;5082432;28;20485;-78
2022/10/24 05:28:18;;;;;;;;;;;14.30;99.90;;;;;;5085968;28;20062;-76
2022/10/24 05:30:44;;;;;;;0.52;0.52;;;14.30;99.90;;;;;;5084454;28;20365;-78
2022/10/24 05:33:10;;;;;;;0.25;0.25;;;14.20;99.90;;;;;;5091095;28;20036;-78
2022/10/24 05:35:37;;;;;;;0.40;0.40;;;14.20;99.90;;;;;;5086341;28;20542;-75
2022/10/24 05:38:03;;;;;;;3.13;2.05;;;14.20;99.90;;;;;;5092443;28;20119;-75
2022/10/24 05:40:29;;;;;;;0.22;0.22;;;14.20;99.90;;;;;;5075089;28;20040;-77
2022/10/24 05:42:55;;;;;;;0.30;0.30;;;14.10;99.90;;;;;;5084479;28;20051;-76
2022/10/24 05:45:21;;;;;;;0.30;0.30;;;14.00;99.90;;;;;;5088491;28;20039;-77
2022/10/24 05:47:47;;;;;;;0.20;0.20;;;13.90;99.90;;;;;;5084493;28;20044;-77
2022/10/24 05:50:13;;;;;;;0.55;0.55;;;13.90;99.90;;;;;;5091702;28;20056;-77
2022/10/24 05:52:41;;;;;;;;;;;13.90;99.90;;;;;;5093331;28;20556;-77
2022/10/24 05:55:08;;;;;;;0.30;0.30;;;14.00;99.90;;;;;;5105115;28;19922;-77
2022/10/24 05:57:36;;;;;;;0.40;0.40;;;14.00;99.90;;;;;;5065994;28;20048;-76
2022/10/24 06:00:05;;;;;;;0.20;0.20;;;14.10;99.90;;;;;;5088790;28;20047;-79
2022/10/24 06:02:30;;;;;;;0.35;0.35;;;14.10;99.90;;;;;;5074197;28;20042;-78
2022/10/24 06:04:57;;;;;;;0.22;0.22;;;14.30;99.90;;;;;;5090799;28;20035;-79
2022/10/24 06:07:23;;;;;;;0.20;0.20;;;14.30;99.90;;;;;;5091043;28;20386;-80
2022/10/24 06:09:49;;;;;;;0.20;0.20;;;14.30;99.90;;;;;;5088640;28;20055;-81
2022/10/24 06:12:15;;;;;;;0.30;0.30;;;14.30;99.90;;;;;;5069020;28;20078;-79
2022/10/24 06:14:41;;;;;;;0.30;0.30;;;14.40;99.90;;;;;;5087331;28;20041;-80
2022/10/24 06:17:08;;;;;;;0.30;0.30;;;14.40;99.90;;;;;;5087340;28;20083;-77
2022/10/24 06:19:35;;;;;;;1.10;0.50;;;14.40;99.90;;;;;;5071443;28;20058;-78
2022/10/24 06:22:02;;;;;;;0.47;0.47;;;14.40;99.90;;;;;;5065927;28;20051;-78
2022/10/24 06:24:27;;;;;;;0.40;0.40;;;14.40;99.90;;;;;;5087741;28;20044;-78
2022/10/24 06:26:53;;;;;;;0.30;0.30;;;14.40;99.90;;;;;;5093010;28;20048;-78
2022/10/24 06:29:19;;;;;;;0.60;0.60;;;14.40;99.90;;;;;;5089940;28;20127;-79
2022/10/24 06:31:45;;;;;;;0.40;0.40;;;14.30;99.90;;;;;;5085492;28;20036;-81
2022/10/24 06:34:10;;;;;;;0.30;0.30;;;14.30;99.90;;;;;;5081351;28;20123;-79
2022/10/24 06:36:36;;;;;;;0.32;0.32;;;14.20;99.90;;;;;;5092381;28;20040;-79
2022/10/24 06:39:02;;;;;;;0.38;0.38;;;14.20;99.90;;;;;;5090057;28;20068;-80
2022/10/24 06:41:28;;;;;;;;;;;14.30;99.90;;;;;;5083699;28;20040;-80
2022/10/24 06:43:55;;;;;;;0.35;0.35;;;14.30;99.90;;;;;;5069551;28;19927;-79
2022/10/24 06:46:22;;;;;;;0.30;0.30;;;14.40;99.90;;;;;;5089321;28;20045;-78
2022/10/24 06:48:48;;;;;;;0.30;0.30;;;14.40;99.90;;;;;;5079175;28;20381;-78
2022/10/24 06:51:17;;;;;;;0.30;0.30;;;14.50;99.90;;;;;;5088208;28;20047;-79
2022/10/24 06:53:43;;;;;;;0.80;0.50;;;14.60;99.90;;;;;;5091141;28;20055;-78
2022/10/24 06:56:08;;;;;;;0.52;0.52;;;14.70;99.90;;;;;;5081986;28;20560;-78
2022/10/24 06:58:36;;;;;;;0.50;0.50;;;14.70;99.90;;;;;;5086802;28;20039;-78
2022/10/24 07:01:17;;;;;;;0.30;0.30;;;14.80;99.90;;;;;;5088636;28;20040;-78
2022/10/24 07:03:43;;;;;;;0.50;0.50;;;14.90;99.90;;;;;;5082528;28;20048;-78
2022/10/24 07:06:13;;;;;;;0.20;0.20;;;15.00;99.90;;;;;;5083161;28;20169;-77
2022/10/24 07:08:39;;;;;;;0.30;0.30;;;15.00;99.90;;;;;;5084368;28;20489;-77
2022/10/24 07:11:05;;;;;;;0.30;0.30;;;15.10;99.90;;;;;;5071908;28;20055;-78
2022/10/24 07:13:31;;;;;;;0.30;0.30;;;15.10;99.90;;;;;;5090543;28;20043;-78
2022/10/24 07:15:56;;;;;;;2.03;1.48;;;15.10;99.90;;;;;;5084024;28;20405;-78
2022/10/24 07:18:22;;;;;;;;;;;15.20;99.90;;;;;;5073823;28;20048;-78
2022/10/24 07:20:48;;;;;;;0.38;0.38;;;15.20;99.90;;;;;;5081278;28;19931;-76
2022/10/24 07:23:14;;;;;;;0.40;0.40;;;15.20;99.90;;;;;;5090935;28;20511;-77
2022/10/24 07:25:40;;;;;;;0.63;0.63;;;15.20;99.90;;;;;;5088359;28;20115;-78
2022/10/24 07:28:07;;;;;;;0.35;0.35;;;15.10;99.90;;;;;;5085869;28;20044;-76
2022/10/24 07:30:33;;;;;;;0.30;0.30;;;15.20;99.90;;;;;;5096079;28;20617;-77
2022/10/24 07:32:58;;;;;;;0.75;0.75;;;15.20;99.90;;;;;;5094614;28;20123;-77
2022/10/24 07:35:24;;;;;;;;;;;15.30;99.90;;;;;;5068407;28;20252;-74
2022/10/24 07:37:50;;;;;;;0.40;0.40;;;15.40;99.90;;;;;;5080165;28;20281;-76
2022/10/24 07:40:17;;;;;;;0.47;0.47;;;15.50;99.90;;;;;;5081148;28;20078;-77
2022/10/24 07:42:42;;;;;;;;;;;15.60;99.90;;;;;;5094438;28;20120;-77
2022/10/24 07:45:09;;;;;;;0.38;0.38;;;15.70;99.90;;;;;;5083342;28;20007;-77
2022/10/24 07:47:34;;;;;;;0.20;0.20;;;15.80;99.90;;;;;;5090732;28;20492;-77
2022/10/24 07:50:00;;;;;;;0.70;0.70;;;15.80;99.90;;;;;;5094963;28;20050;-76
2022/10/24 07:52:26;;;;;;;0.28;0.28;;;15.80;99.90;;;;;;5077183;28;20443;-77
2022/10/24 07:54:52;;;;;;;;;;;15.70;99.90;;;;;;5092611;28;20035;-76
2022/10/24 07:57:18;;;;;;;0.30;0.30;;;15.70;99.90;;;;;;5070596;28;19962;-77
2022/10/24 07:59:44;;;;;;;;;;;15.70;99.90;;;;;;5092509;28;20531;-77
2022/10/24 08:02:14;;;;;;;1.15;1.15;;;15.70;99.90;;;;;;5094151;28;19960;-80
2022/10/24 08:04:40;;;;;;;0.20;0.20;;;15.80;99.90;;;;;;5092543;28;20384;-80
2022/10/24 08:07:11;;;;;;;0.20;0.20;;;15.80;99.90;;;;;;5094194;28;20044;-76
2022/10/24 08:09:43;;;;;;;3.30;0.55;;;15.90;99.90;;;;;;5080975;28;20050;-77
2022/10/24 08:12:09;;;;;;;0.22;0.22;;;15.90;99.90;;;;;;5095483;28;20047;-76
2022/10/24 08:14:41;;;;;;;0.50;0.50;;;15.90;99.90;;;;;;5089269;28;20044;-74
2022/10/24 08:17:07;;;;;;;0.28;0.28;;;15.90;99.90;;;;;;5089962;28;20048;-76
2022/10/24 08:19:34;;;;;;;0.32;0.32;;;16.00;99.90;;;;;;5081107;28;20059;-77
2022/10/24 08:22:00;;;;;;;0.30;0.30;;;16.00;99.90;;;;;;5088125;28;20056;-78
2022/10/24 08:24:26;;;;;;;0.30;0.30;;;16.00;99.90;;;;;;5077262;28;20067;-77
2022/10/24 08:26:54;;;;;;;;;;;16.10;99.90;;;;;;5093850;28;20095;-74
2022/10/24 08:29:21;;;;;;;0.22;0.22;;;16.20;99.90;;;;;;5091841;28;20395;-75
2022/10/24 08:31:52;;;;;;;0.65;0.52;;;16.20;99.90;;;;;;5092377;28;20540;-76
2022/10/24 08:34:18;;;;;;;0.30;0.30;;;16.30;99.90;;;;;;5096447;28;20046;-75
2022/10/24 08:36:45;;;;;;;;;;;16.30;99.90;;;;;;5087712;28;20044;-76
2022/10/24 08:39:11;;;;;;;0.20;0.20;;;16.30;99.90;;;;;;5099077;28;19916;-76
2022/10/24 08:41:45;;;;;;;0.25;0.25;;;16.30;99.90;;;;;;5095351;28;20127;-76
2022/10/24 08:44:28;;;;;;;0.60;0.60;;;16.30;99.90;;;;;;5085426;28;20138;-76
2022/10/24 08:47:00;;;;;;;0.38;0.38;;;16.20;99.90;;;;;;5087024;28;20040;-75
2022/10/24 08:49:31;;;;;;;0.22;0.22;;;16.30;99.90;;;;;;5101351;28;20079;-74
2022/10/24 08:52:10;;;;;;;1.45;0.73;;;16.30;99.90;;;;;;5087230;28;20067;-74
2022/10/24 08:54:40;;;;;;;0.30;0.30;;;16.30;99.90;;;;;;5092632;28;20028;-74
2022/10/24 08:57:09;;;;;;;0.30;0.30;;;16.40;99.90;;;;;;5081264;28;20066;-75
2022/10/24 08:59:36;;;;;;;0.30;0.30;;;16.40;99.90;;;;;;5087806;28;20381;-77
2022/10/24 09:02:14;;;;;;;0.50;0.50;;;16.30;99.90;;;;;;5060537;28;20489;-74
2022/10/24 09:04:47;;;;;;;0.38;0.38;;;16.40;99.90;;;;;;5067425;28;20041;-74
2022/10/24 09:07:18;;;;;;;0.40;0.40;;;16.40;99.90;;;;;;5076391;28;20389;-77
2022/10/24 09:09:47;;;;;;;0.32;0.32;;;16.40;99.90;;;;;;5074093;28;20059;-75
2022/10/24 09:12:15;;;;;;;0.40;0.40;;;16.40;99.90;;;;;;5076721;28;20048;-76
2022/10/24 09:14:44;;;;;;;1.80;1.70;;;16.50;99.90;;;;;;5076118;28;20040;-76
2022/10/24 09:17:30;;;;;;;0.50;0.38;;;16.40;99.90;;;;;;5074590;28;20101;-76
2022/10/24 09:19:58;;;;;;;0.20;0.20;;;16.50;99.90;;;;;;5079783;28;20053;-76
2022/10/24 09:22:27;;;;;;;0.20;0.20;;;16.30;99.90;;;;;;5075931;28;20325;-77
2022/10/24 09:25:04;;;;;;;1.02;1.02;;;16.20;99.90;;;;;;5075528;28;20044;-76
2022/10/24 09:27:32;;;;;;;;;;;16.10;99.90;;;;;;5085691;28;20074;-76
2022/10/24 09:29:59;;;;;;;0.30;0.30;;;16.00;99.90;;;;;;5098399;28;20285;-77
2022/10/24 09:32:31;;;;;;;0.30;0.30;;;16.00;99.90;;;;;;5113234;28;20513;-78
2022/10/24 09:35:00;;;;;;;0.55;0.55;;;15.90;99.90;;;;;;5091572;28;20050;-76
2022/10/24 09:37:42;;;;;;;0.30;0.30;;;15.90;99.90;;;;;;5075374;28;20113;-77
2022/10/24 09:40:26;;;;;;;0.40;0.40;;;16.00;99.90;;;;;;5088348;28;20042;-77
2022/10/24 09:43:16;;;;;;;0.63;0.63;;;16.10;99.90;;;;;;5079051;28;20048;-75
2022/10/24 09:45:59;;;;;;;0.40;0.40;;;16.20;99.90;;;;;;5067307;28;20087;-74
2022/10/24 09:48:31;;;;;;;0.28;0.28;;;16.30;99.90;;;;;;5075465;28;20048;-74
2022/10/24 09:50:58;;;;;;;0.45;0.45;;;16.40;99.90;;;;;;5096424;27;20040;-75
2022/10/24 09:53:30;;;;;;;0.30;0.30;;;16.40;99.90;;;;;;5055921;28;20761;-74
2022/10/24 09:56:06;;;;;;;0.88;0.73;;;16.60;99.90;;;;;;5074379;28;20051;-75
2022/10/24 09:58:32;;;;;;;0.30;0.30;;;16.60;99.90;;;;;;5072003;28;20093;-75
2022/10/24 10:01:00;;;;;;;0.47;0.47;;;16.70;99.90;;;;;;5079939;28;20044;-74
2022/10/24 10:03:27;;;;;;;0.30;0.30;;;16.80;99.90;;;;;;5074489;28;20080;-74
2022/10/24 10:05:57;;;;;;;0.20;0.20;;;16.90;99.90;;;;;;5075694;28;20133;-76
2022/10/24 10:08:27;;;;;;;0.32;0.32;;;17.10;99.90;;;;;;5073889;28;20043;-75
2022/10/24 10:11:11;;;;;;;0.30;0.30;;;17.00;99.90;;;;;;5093585;28;20044;-75
2022/10/24 10:13:49;;;;;;;0.30;0.30;;;16.90;99.90;;;;;;5081263;28;20044;-76
2022/10/24 10:16:36;;;;;;;0.30;0.30;;;16.80;99.90;;;;;;5089666;28;20047;-76
2022/10/24 10:19:19;;;;;;;0.30;0.30;;;16.70;99.90;;;;;;5085144;28;20115;-75
2022/10/24 10:22:19;;;;;;;0.20;0.20;;;16.60;99.90;;;;;;5082246;28;20049;-76
2022/10/24 10:24:45;;;;;;;1.00;1.00;;;16.70;99.90;;;;;;5075870;28;20084;-77
2022/10/24 10:27:34;;;;;;;0.30;0.30;;;16.80;99.90;;;;;;5075887;28;20495;-76
2022/10/24 10:30:15;;;;;;;0.30;0.30;;;17.00;99.90;;;;;;5076172;28;20055;-76
2022/10/24 10:32:56;;;;;;;0.28;0.28;;;16.90;99.90;;;;;;5078078;28;20051;-77
2022/10/24 10:35:25;;;;;;;0.20;0.20;;;16.80;99.90;;;;;;5087955;28;20141;-76
2022/10/24 10:38:04;;;;;;;0.30;0.30;;;16.80;99.90;;;;;;5086765;28;20131;-75
2022/10/24 10:41:14;;;;;;;0.30;0.30;;;16.70;99.90;;;;;;5083460;28;20047;-75
2022/10/24 10:44:03;;;;;;;1.95;1.83;;;16.50;99.90;;;;;;5083473;28;20493;-76
2022/10/24 10:46:50;;;;;;;0.30;0.30;;;16.40;99.90;;;;;;5092736;28;20036;-74
2022/10/24 10:49:27;;;;;;;0.30;0.30;;;16.10;99.90;;;;;;5091075;28;20051;-75
2022/10/24 10:52:03;;;;;;;0.38;0.38;;;16.00;99.90;;;;;;5086208;28;20059;-75
2022/10/24 10:54:47;;;;;;;0.30;0.30;;;15.80;99.90;;;;;;5083641;28;20096;-76
2022/10/24 10:57:19;;;;;;;0.40;0.40;;;15.70;99.90;;;;;;5082914;28;20131;-74
2022/10/24 10:59:59;;;;;;;0.45;0.45;;;15.60;99.90;;;;;;5089210;28;20390;-76
2022/10/24 11:02:53;;;;;;;0.73;0.73;;;15.50;99.90;;;;;;5100451;28;20044;-76
2022/10/24 11:05:32;;;;;;;0.95;0.95;;;15.50;99.90;;;;;;5084013;28;20101;-75
2022/10/24 11:08:22;;;;;;;0.20;0.20;;;15.60;99.90;;;;;;5092653;28;20470;-75
2022/10/24 11:11:05;;;;;;;0.30;0.30;;;15.70;99.90;;;;;;5083365;28;20044;-77
2022/10/24 11:13:50;;;;;;;0.30;0.30;;;15.90;99.90;;;;;;5086200;28;20044;-76
2022/10/24 11:16:24;;;;;;;0.30;0.30;;;16.10;99.90;;;;;;5090246;28;20044;-75
2022/10/24 11:18:52;;;;;;;0.40;0.40;;;16.30;99.90;;;;;;5087028;28;20079;-75
2022/10/24 11:21:23;;;;;;;0.22;0.22;;;16.50;99.90;;;;;;5080473;28;20052;-77
2022/10/24 11:24:14;;;;;;;0.30;0.30;;;16.50;99.90;;;;;;5085685;28;20382;-81
2022/10/24 11:26:45;;;;;;;0.38;0.38;;;16.50;99.90;;;;;;5090915;28;20155;-76
2022/10/24 11:29:32;;;;;;;0.30;0.30;;;16.60;99.90;;;;;;5084454;28;20138;-77
2022/10/24 11:32:19;;;;;;;0.30;0.30;;;16.50;99.90;;;;;;5061313;28;20052;-78
2022/10/24 11:35:17;;;;;;;0.25;0.25;;;16.60;99.90;;;;;;5081536;28;20055;-79
2022/10/24 11:37:48;;;;;;;0.20;0.20;;;16.50;99.90;;;;;;5081485;28;20447;-79
2022/10/24 11:40:22;;;;;;;0.30;0.30;;;16.50;99.90;;;;;;5081803;28;20055;-78
2022/10/24 11:43:19;;;;;;;0.40;0.40;;;16.60;99.90;;;;;;5082287;28;20131;-76
2022/10/24 11:46:20;;;;;;;0.35;0.35;;;16.50;99.90;;;;;;5080815;28;20489;-81
2022/10/24 11:49:13;;;;;;;0.22;0.22;;;16.40;99.90;;;;;;5070684;28;20051;-83
2022/10/24 11:51:52;;;;;;;0.20;0.20;;;16.30;99.90;;;;;;5078379;28;20044;-77
2022/10/24 11:54:24;;;;;;;0.57;0.57;;;16.30;99.90;;;;;;5069231;28;20513;-80
2022/10/24 11:56:57;;;;;;;0.20;0.20;;;16.30;99.90;;;;;;5085007;28;20045;-78
2022/10/24 11:59:25;;;;;;;0.30;0.30;;;16.40;99.90;;;;;;5083996;28;20067;-77
2022/10/24 12:02:23;;;;;;;0.30;0.30;;;16.40;99.90;;;;;;5083395;28;20477;-79
2022/10/24 12:05:07;;;;;;;;;;;16.40;99.90;;;;;;5094065;28;20044;-76
2022/10/24 12:08:00;;;;;;;0.30;0.30;;;16.40;99.90;;;;;;5088303;28;19924;-77
2022/10/24 12:10:53;;;;;;;0.40;0.40;;;16.40;99.90;;;;;;5092342;28;20040;-78
2022/10/24 12:13:28;;;;;;;0.65;0.65;;;16.40;99.90;;;;;;5084201;28;20953;-77
2022/10/24 12:16:13;;;;;;;0.50;0.50;;;16.40;99.90;;;;;;5064498;28;20040;-79
2022/10/24 12:18:43;;;;;;;0.63;0.63;;;16.40;99.90;;;;;;5084639;28;20067;-77
2022/10/24 12:21:12;;;;;;;0.43;0.43;;;16.50;99.90;;;;;;5093138;28;20094;-79
2022/10/24 12:23:40;;;;;;;0.30;0.30;;;16.60;99.90;;;;;;5087155;28;20057;-78
2022/10/24 12:26:23;;;;;;;0.40;0.40;;;16.60;99.90;;;;;;5054037;28;20119;-82
2022/10/24 12:28:57;;;;;;;0.30;0.30;;;16.70;99.90;;;;;;5065745;28;20047;-81
2022/10/24 12:31:30;;;;;;;2.40;0.40;;;16.80;99.90;;;;;;5086548;28;20074;-79
2022/10/24 12:34:14;;;;;;;0.35;0.35;;;16.90;99.90;;;;;;5083081;28;20118;-80
2022/10/24 12:37:01;;;;;;;0.30;0.30;;;17.10;99.90;;;;;;5075190;28;20043;-79
2022/10/24 12:39:33;;;;;;;0.30;0.30;;;17.00;99.90;;;;;;5095060;28;20385;-80
2022/10/24 12:41:59;;;;;;;0.30;0.30;;;16.90;99.90;;;;;;5088822;28;20055;-81
2022/10/24 12:44:34;;;;;;;0.20;0.20;;;16.70;99.90;;;;;;5075284;28;20047;-79
2022/10/24 12:47:16;;;;;;;1.08;0.98;;;16.60;99.90;;;;;;5084963;28;20484;-77
2022/10/24 12:49:41;;;;;;;0.30;0.30;;;16.50;99.90;;;;;;5092871;28;20752;-78
2022/10/24 12:52:29;;;;;;;0.20;0.20;;;16.40;99.90;;;;;;5088898;28;20053;-79
2022/10/24 12:54:55;;;;;;;0.40;0.40;;;16.50;99.90;;;;;;5072432;28;20377;-79
2022/10/24 12:57:26;;;;;;;;;;;16.50;99.90;;;;;;5071483;28;20040;-76
2022/10/24 13:00:00;;;;;;;0.20;0.20;;;16.70;99.90;;;;;;5074442;28;19916;-76
2022/10/24 13:02:32;;;;;;;0.30;0.30;;;17.00;99.90;;;;;;5076777;28;20133;-77
2022/10/24 13:05:01;;;;;;;1.15;1.05;;;17.40;99.90;;;;;;5079526;28;20051;-79
2022/10/24 13:07:57;;;;;;;0.30;0.30;;;17.60;99.90;;;;;;5072574;28;20425;-79
2022/10/24 13:10:52;;;;;;;0.30;0.30;;;17.60;99.90;;;;;;5073705;28;20032;-78
2022/10/24 13:13:47;;;;;;;0.52;0.52;;;17.60;99.90;;;;;;5077896;28;20036;-78
2022/10/24 13:16:28;;;;;;;0.60;0.60;;;17.50;99.90;;;;;;5065470;28;20056;-79